createdAt,value
2023-12-11T00:03:24.037Z,98954.13
2023-12-11T00:08:24.782Z,98928.34
2023-12-11T00:13:25.473Z,98899.00
2023-12-11T00:18:27.543Z,98885.28
2023-12-11T00:23:28.426Z,98881.91
2023-12-11T00:28:29.271Z,98875.97
2023-12-11T00:33:31.460Z,98870.94
2023-12-11T00:38:32.864Z,98878.75
2023-12-11T00:43:44.523Z,98865.75
2023-12-11T00:48:48.690Z,98843.56
2023-12-11T00:53:50.073Z,98820.75
2023-12-11T00:58:50.719Z,98831.13
2023-12-11T01:03:52.904Z,98823.31
2023-12-11T01:08:53.703Z,98808.66
2023-12-11T01:13:54.395Z,98802.56
2023-12-11T01:18:56.531Z,98792.97
2023-12-11T01:23:58.214Z,98777.06
2023-12-11T01:28:58.996Z,98790.19
2023-12-11T01:34:01.195Z,98786.47
2023-12-11T01:39:01.912Z,98777.06
2023-12-11T01:44:02.668Z,98777.56
2023-12-11T01:49:04.951Z,98767.06
2023-12-11T01:54:05.828Z,98771.88
2023-12-11T01:59:06.491Z,98764.19
2023-12-11T02:04:10.014Z,98759.78
2023-12-11T02:09:12.068Z,98751.75
2023-12-11T02:14:12.808Z,98755.50
2023-12-11T02:19:14.867Z,98759.03
2023-12-11T02:24:20.432Z,98752.44
2023-12-11T02:29:22.439Z,98752.31
2023-12-11T02:34:23.154Z,98745.00
2023-12-11T02:39:23.846Z,98750.84
2023-12-11T02:44:25.835Z,98752.03
2023-12-11T02:49:26.782Z,98740.34
2023-12-11T02:54:27.621Z,98751.56
2023-12-11T02:59:29.609Z,98752.66
2023-12-11T03:04:30.391Z,98762.59
2023-12-11T03:09:31.174Z,98757.66
2023-12-11T03:14:33.199Z,98767.09
2023-12-11T03:19:35.231Z,98758.72
2023-12-11T03:24:36.044Z,98775.28
2023-12-11T03:29:38.072Z,98766.28
2023-12-11T03:34:38.825Z,98791.66
2023-12-11T03:39:39.599Z,98794.59
2023-12-11T03:44:45.424Z,98810.94
2023-12-11T03:49:46.136Z,98800.88
2023-12-11T03:54:46.880Z,98793.53
2023-12-11T03:59:48.910Z,98797.78
2023-12-11T04:04:49.772Z,98803.13
2023-12-11T04:09:50.657Z,98790.50
2023-12-11T04:14:52.652Z,98793.09
2023-12-11T04:19:54.268Z,98796.78
2023-12-11T04:24:55.130Z,98791.91
2023-12-11T04:29:57.163Z,98793.34
2023-12-11T04:34:57.810Z,98807.81
2023-12-11T04:39:58.509Z,98805.66
2023-12-11T04:45:00.527Z,98808.56
2023-12-11T04:50:01.353Z,98818.72
2023-12-11T04:55:02.168Z,98819.31
2023-12-11T05:00:05.635Z,98806.91
2023-12-11T05:05:07.139Z,98808.91
2023-12-11T05:10:08.526Z,98809.41
2023-12-11T05:15:11.530Z,98815.84
2023-12-11T05:20:14.175Z,98822.97
2023-12-11T05:25:15.287Z,98818.59
2023-12-11T05:30:22.712Z,98825.34
2023-12-11T05:35:24.990Z,98833.59
2023-12-11T05:40:25.706Z,98825.22
2023-12-11T05:45:28.097Z,98818.28
2023-12-11T05:50:30.343Z,98818.88
2023-12-11T05:55:32.805Z,98819.72
2023-12-11T06:00:35.195Z,98823.16
2023-12-11T06:05:36.015Z,98831.97
2023-12-11T06:10:36.844Z,98823.88
2023-12-11T06:15:38.935Z,98823.31
2023-12-11T06:20:39.677Z,98831.69
2023-12-11T06:25:40.522Z,98828.66
2023-12-11T06:30:42.589Z,98827.31
2023-12-11T06:35:43.296Z,98824.22
2023-12-11T06:40:43.963Z,98822.47
2023-12-11T06:45:46.703Z,98816.13
2023-12-11T06:50:47.407Z,98819.84
2023-12-11T06:55:48.256Z,98830.16
2023-12-11T07:00:51.739Z,98829.13
2023-12-11T07:05:52.875Z,98837.16
2023-12-11T07:10:53.610Z,98838.47
2023-12-11T07:15:55.618Z,98843.44
2023-12-11T07:20:57.594Z,98850.97
2023-12-11T07:25:58.282Z,98847.38
2023-12-11T07:31:00.318Z,98837.25
2023-12-11T07:36:01.144Z,98823.91
2023-12-11T07:41:03.625Z,98826.88
2023-12-11T07:46:07.742Z,98821.69
2023-12-11T07:51:17.690Z,98825.56
2023-12-11T07:56:21.751Z,98819.56
2023-12-11T08:01:23.986Z,98804.13
2023-12-11T08:06:24.803Z,98798.53
2023-12-11T08:11:26.952Z,98792.00
2023-12-11T08:16:29.297Z,98793.78
2023-12-11T08:21:29.964Z,98786.59
2023-12-11T08:26:30.751Z,98792.84
2023-12-11T08:31:32.868Z,98767.34
2023-12-11T08:36:33.555Z,98766.84
2023-12-11T08:41:35.374Z,98774.88
2023-12-11T08:46:38.633Z,98784.94
2023-12-11T08:51:39.435Z,98777.94
2023-12-11T08:56:40.773Z,98763.97
2023-12-11T09:01:42.952Z,98767.72
2023-12-11T09:06:46.148Z,98748.88
2023-12-11T09:11:46.912Z,98744.31
2023-12-11T09:16:48.905Z,98749.84
2023-12-11T09:21:50.683Z,98742.78
2023-12-11T09:26:52.550Z,98722.06
2023-12-11T09:31:55.003Z,98732.91
2023-12-11T09:36:55.788Z,98714.53
2023-12-11T09:41:58.334Z,98709.53
2023-12-11T09:47:08.927Z,98687.06
2023-12-11T09:52:09.773Z,98692.00
2023-12-11T09:57:13.377Z,98677.44
2023-12-11T10:02:18.579Z,98681.34
2023-12-11T10:07:19.553Z,98674.75
2023-12-11T10:12:20.598Z,98663.44
2023-12-11T10:17:22.701Z,98637.13
2023-12-11T10:22:32.326Z,98658.09
2023-12-11T10:27:34.839Z,98664.78
2023-12-11T10:32:37.136Z,98650.84
2023-12-11T10:37:37.842Z,98644.78
2023-12-11T10:42:38.613Z,98648.31
2023-12-11T10:47:42.315Z,98645.75
2023-12-11T10:52:43.852Z,98650.75
2023-12-11T10:57:45.304Z,98646.16
2023-12-11T11:02:51.767Z,98641.75
2023-12-11T11:07:58.992Z,98641.41
2023-12-11T11:13:06.229Z,98632.06
2023-12-11T11:18:11.490Z,98640.69
2023-12-11T11:23:23.959Z,98628.81
2023-12-11T11:28:39.517Z,98621.50
2023-12-11T11:33:50.583Z,98597.47
2023-12-11T11:38:59.203Z,98624.94
2023-12-11T11:44:01.607Z,98638.00
2023-12-11T11:49:03.791Z,98632.56
2023-12-11T11:54:04.845Z,98638.84
2023-12-11T11:59:07.489Z,98632.75
2023-12-11T12:04:09.722Z,98649.03
2023-12-11T12:09:18.286Z,98654.38
2023-12-11T12:14:19.763Z,98639.81
2023-12-11T12:19:33.219Z,98637.28
2023-12-11T12:24:39.876Z,98644.13
2023-12-11T12:29:41.512Z,98634.38
2023-12-11T12:34:47.395Z,98630.75
2023-12-11T12:39:48.173Z,98641.47
2023-12-11T12:44:48.921Z,98625.22
2023-12-11T12:49:51.132Z,98627.25
2023-12-11T12:54:52.946Z,98627.16
2023-12-11T12:59:54.016Z,98604.78
2023-12-11T13:04:56.781Z,98618.28
2023-12-11T13:09:57.819Z,98615.81
2023-12-11T13:15:00.804Z,98626.22
2023-12-11T13:20:04.865Z,98626.41
2023-12-11T13:25:06.751Z,98619.19
2023-12-11T13:30:09.632Z,98637.22
2023-12-11T13:35:12.838Z,98635.56
2023-12-11T13:40:14.102Z,98627.31
2023-12-11T13:45:15.055Z,98623.44
2023-12-11T13:50:17.356Z,98632.50
2023-12-11T13:55:18.269Z,98625.94
2023-12-11T14:00:19.244Z,98625.28
2023-12-11T14:05:21.603Z,98623.03
2023-12-11T14:10:22.570Z,98626.06
2023-12-11T14:15:24.900Z,98628.53
2023-12-11T14:20:26.931Z,98627.28
2023-12-11T14:25:27.743Z,98627.13
2023-12-11T14:30:28.494Z,98624.41
2023-12-11T14:35:30.606Z,98635.72
2023-12-11T14:40:31.469Z,98644.44
2023-12-11T14:45:32.467Z,98641.38
2023-12-11T14:50:34.521Z,98635.09
2023-12-11T14:55:39.067Z,98649.81
2023-12-11T15:00:43.760Z,98634.19
2023-12-11T15:05:45.882Z,98624.13
2023-12-11T15:10:46.962Z,98649.22
2023-12-11T15:15:48.002Z,98641.22
2023-12-11T15:20:50.044Z,98632.28
2023-12-11T15:25:50.804Z,98636.97
2023-12-11T15:30:51.531Z,98632.63
2023-12-11T15:35:53.624Z,98646.19
2023-12-11T15:40:55.365Z,98643.25
2023-12-11T15:45:56.058Z,98652.09
2023-12-11T15:50:59.465Z,98637.13
2023-12-11T15:56:00.341Z,98638.00
2023-12-11T16:01:01.156Z,98636.66
2023-12-11T16:06:03.692Z,98647.63
2023-12-11T16:11:04.496Z,98658.69
2023-12-11T16:16:06.342Z,98643.13
2023-12-11T16:21:08.788Z,98652.88
2023-12-11T16:26:14.370Z,98673.50
2023-12-11T16:31:21.968Z,98675.75
2023-12-11T16:36:24.423Z,98676.66
2023-12-11T16:41:25.865Z,98672.84
2023-12-11T16:46:26.727Z,98690.75
2023-12-11T16:51:28.868Z,98709.16
2023-12-11T16:56:29.556Z,98708.22
2023-12-11T17:01:30.418Z,98699.94
2023-12-11T17:06:34.844Z,98700.72
2023-12-11T17:11:37.764Z,98713.66
2023-12-11T17:16:38.608Z,98729.34
2023-12-11T17:21:43.291Z,98733.09
2023-12-11T17:26:44.110Z,98730.50
2023-12-11T17:31:45.033Z,98731.50
2023-12-11T17:36:47.045Z,98739.47
2023-12-11T17:41:47.870Z,98743.44
2023-12-11T17:46:48.584Z,98757.38
2023-12-11T17:51:53.129Z,98763.97
2023-12-11T17:56:53.961Z,98766.41
2023-12-11T18:01:54.854Z,98782.47
2023-12-11T18:06:57.012Z,98773.78
2023-12-11T18:11:57.705Z,98787.69
2023-12-11T18:16:58.399Z,98820.56
2023-12-11T18:22:01.458Z,98800.69
2023-12-11T18:27:02.919Z,98819.97
2023-12-11T18:32:03.565Z,98829.25
2023-12-11T18:37:06.863Z,98860.47
2023-12-11T18:42:07.795Z,98846.69
2023-12-11T18:47:08.569Z,98862.81
2023-12-11T18:52:11.867Z,98870.63
2023-12-11T18:57:15.563Z,98883.63
2023-12-11T19:02:16.540Z,98891.28
2023-12-11T19:07:18.745Z,98914.78
2023-12-11T19:12:19.476Z,98915.56
2023-12-11T19:17:20.488Z,98929.56
2023-12-11T19:22:22.562Z,98932.16
2023-12-11T19:27:26.233Z,98942.28
2023-12-11T19:32:27.289Z,98950.09
2023-12-11T19:37:29.664Z,98956.00
2023-12-11T19:42:30.606Z,98966.19
2023-12-11T19:47:32.646Z,98969.72
2023-12-11T19:52:35.222Z,98971.94
2023-12-11T19:57:35.946Z,98963.50
2023-12-11T20:02:38.775Z,98969.19
2023-12-11T20:07:40.903Z,98979.31
2023-12-11T20:12:41.649Z,99001.06
2023-12-11T20:17:42.479Z,99012.69
2023-12-11T20:22:45.274Z,99018.03
2023-12-11T20:27:46.067Z,99019.94
2023-12-11T20:32:46.907Z,99031.19
2023-12-11T20:37:49.049Z,99056.50
2023-12-11T20:42:49.730Z,99055.72
2023-12-11T20:47:50.495Z,99067.78
2023-12-11T20:52:53.508Z,99080.72
2023-12-11T20:57:54.729Z,99105.00
2023-12-11T21:02:55.538Z,99126.75
2023-12-11T21:07:57.742Z,99095.66
2023-12-11T21:12:58.482Z,99117.25
2023-12-11T21:17:59.282Z,99113.19
2023-12-11T21:23:01.907Z,99132.34
2023-12-11T21:28:02.657Z,99133.34
2023-12-11T21:33:04.221Z,99124.72
2023-12-11T21:38:06.247Z,99144.41
2023-12-11T21:43:06.991Z,99149.53
2023-12-11T21:48:07.798Z,99162.53
2023-12-11T21:53:09.884Z,99168.69
2023-12-11T21:58:11.109Z,99166.91
2023-12-11T22:03:11.875Z,99195.63
2023-12-11T22:08:14.077Z,99192.16
2023-12-11T22:13:14.914Z,99203.50
2023-12-11T22:18:15.917Z,99213.03
2023-12-11T22:23:17.980Z,99217.34
2023-12-11T22:28:18.786Z,99226.19
2023-12-11T22:33:19.572Z,99223.59
2023-12-11T22:38:21.657Z,99231.44
2023-12-11T22:43:22.490Z,99247.84
2023-12-11T22:48:23.260Z,99256.78
2023-12-11T22:53:25.380Z,99269.88
2023-12-11T22:58:26.135Z,99253.50
2023-12-11T23:03:26.854Z,99264.75
2023-12-11T23:08:28.834Z,99282.00
2023-12-11T23:13:29.941Z,99282.09
2023-12-11T23:18:30.780Z,99279.09
2023-12-11T23:23:32.880Z,99280.03
2023-12-11T23:28:33.676Z,99269.81
2023-12-11T23:33:35.216Z,99287.13
2023-12-11T23:38:37.276Z,99290.75
2023-12-11T23:43:37.991Z,99287.53
2023-12-11T23:48:38.805Z,99292.88
2023-12-11T23:53:40.888Z,99286.97
2023-12-11T23:58:41.598Z,99294.97
